Time;durP1;ratioP1;P1;durP2;ratioP2;P2;SDS_P1;SDS_P2;PMS_P1;PMS_P2;Temp;Humidity;BMP_temperature;BMP_pressure;BME280_temperature;BME280_humidity;BME280_pressure;Samples;Min_cycle;Max_cycle;Signal;HPM_P1;HPM_P2
2023/09/29 00:00:13;;;;;;;16.20;12.80;;;;;;;15.83;94.25;101253.19;91267;280;136576;-71
2023/09/29 00:02:15;;;;;;;15.10;12.30;;;;;;;15.87;93.72;101251.55;88715;282;22780;-72
2023/09/29 00:04:17;;;;;;;19.40;15.20;;;;;;;15.90;93.02;101254.87;88295;280;137628;-71
2023/09/29 00:06:18;;;;;;;14.80;12.10;;;;;;;15.89;94.89;101252.39;88421;281;25118;-72
2023/09/29 00:08:22;;;;;;;16.00;11.30;;;;;;;15.83;93.88;101251.03;88354;281;138674;-73
2023/09/29 00:10:24;;;;;;;13.60;12.10;;;;;;;15.83;92.98;101250.09;91370;281;22189;-72
2023/09/29 00:12:26;;;;;;;20.40;13.10;;;;;;;15.87;92.11;101249.77;91247;281;137632;-73
2023/09/29 00:14:28;;;;;;;19.70;12.20;;;;;;;15.91;91.65;101251.48;91397;281;22372;-72
2023/09/29 00:16:29;;;;;;;21.30;17.00;;;;;;;15.94;91.37;101251.16;91195;280;136619;-70
2023/09/29 00:18:31;;;;;;;17.00;13.30;;;;;;;15.96;92.81;101248.77;91363;281;22804;-73
2023/09/29 00:20:34;;;;;;;15.20;12.10;;;;;;;15.91;92.44;101249.70;91193;280;138078;-73
2023/09/29 00:22:37;;;;;;;15.60;12.30;;;;;;;15.90;91.35;101248.09;91160;281;22530;-71
2023/09/29 00:24:39;;;;;;;13.50;11.40;;;;;;;15.91;90.95;101250.79;88568;274;136427;-71
2023/09/29 00:26:41;;;;;;;16.60;11.70;;;;;;;15.92;90.40;101246.81;88389;280;24057;-71
2023/09/29 00:28:44;;;;;;;22.20;17.00;;;;;;;15.92;90.10;101246.77;88324;281;137591;-73
2023/09/29 00:30:46;;;;;;;15.00;12.30;;;;;;;15.90;91.15;101248.09;91381;279;22236;-72
2023/09/29 00:32:49;;;;;;;18.20;12.90;;;;;;;15.88;90.53;101244.98;91269;283;138621;-73
2023/09/29 00:34:52;;;;;;;15.40;11.80;;;;;;;15.89;90.01;101244.15;91203;283;22360;-72
2023/09/29 00:36:54;;;;;;;14.20;12.70;;;;;;;15.93;89.74;101242.80;91258;281;138733;-71
2023/09/29 00:38:55;;;;;;;14.70;12.50;;;;;;;15.95;89.45;101242.27;91376;281;22263;-73
2023/09/29 00:40:57;;;;;;;16.50;11.80;;;;;;;15.97;89.02;101245.52;90856;281;136584;-70
2023/09/29 00:42:59;;;;;;;16.30;12.60;;;;;;;15.99;88.92;101240.59;88388;279;22926;-69
2023/09/29 00:45:03;;;;;;;18.10;12.60;;;;;;;16.00;88.68;101243.23;88280;273;136769;-69
2023/09/29 00:47:06;;;;;;;16.30;12.50;;;;;;;16.00;88.29;101243.33;88396;273;23337;-69
2023/09/29 00:49:08;;;;;;;20.70;12.30;;;;;;;16.00;87.94;101241.95;89184;282;136497;-70
2023/09/29 00:51:10;;;;;;;14.40;12.10;;;;;;;15.98;87.93;101240.01;88424;273;22599;-71
2023/09/29 00:53:16;;;;;;;17.10;13.50;;;;;;;15.97;88.01;101241.98;91213;282;136235;-73
2023/09/29 00:55:23;;;;;;;17.50;13.50;;;;;;;15.95;88.71;101243.48;90539;284;22575;-70
2023/09/29 00:57:28;;;;;;;14.80;11.70;;;;;;;15.92;89.25;101242.64;88418;275;136842;-72
2023/09/29 00:59:31;;;;;;;18.60;11.90;;;;;;;15.87;88.74;101242.24;89171;280;22989;-73
2023/09/29 01:01:34;;;;;;;17.50;11.30;;;;;;;15.83;88.37;101244.17;91106;282;136257;-74
2023/09/29 01:03:35;;;;;;;13.00;11.60;;;;;;;15.79;88.17;101242.17;89791;275;22546;-71
2023/09/29 01:05:44;;;;;;;16.10;12.20;;;;;;;15.78;88.12;101241.97;91234;281;136340;-72
2023/09/29 01:07:46;;;;;;;17.30;12.60;;;;;;;15.77;87.86;101245.32;89157;277;22540;-71
2023/09/29 01:09:48;;;;;;;18.60;11.70;;;;;;;15.76;87.78;101243.05;88790;277;137082;-72
2023/09/29 01:11:52;;;;;;;12.80;10.60;;;;;;;15.75;87.70;101241.91;88499;283;24882;-73
2023/09/29 01:13:54;;;;;;;21.20;12.20;;;;;;;15.73;87.58;101240.40;88355;283;140577;-69
2023/09/29 01:15:57;;;;;;;15.30;10.70;;;;;;;15.72;87.41;101239.60;88639;281;25227;-73
2023/09/29 01:18:00;;;;;;;15.00;11.60;;;;;;;15.70;87.40;101240.36;88587;280;137359;-72
2023/09/29 01:20:04;;;;;;;12.80;11.20;;;;;;;15.69;87.25;101240.94;88611;273;25210;-70
2023/09/29 01:22:06;;;;;;;17.10;12.20;;;;;;;15.70;87.29;101239.05;88694;273;25211;-69
2023/09/29 01:24:08;;;;;;;17.90;10.90;;;;;;;15.73;87.20;101242.76;88490;273;137982;-71
2023/09/29 01:26:11;;;;;;;11.20;10.00;;;;;;;15.74;87.09;101240.58;88562;273;23749;-70
2023/09/29 01:28:13;;;;;;;14.90;10.60;;;;;;;15.75;86.91;101243.14;88233;284;137452;-71
2023/09/29 01:30:18;;;;;;;18.40;10.30;;;;;;;15.75;86.95;101243.93;88614;273;22599;-69
2023/09/29 01:32:20;;;;;;;;;;;;;;;15.74;86.98;101244.21;88552;273;136634;-71
2023/09/29 01:34:24;;;;;;;13.40;11.20;;;;;;;15.72;86.99;101248.23;88608;281;23862;-70
2023/09/29 01:36:25;;;;;;;16.40;11.80;;;;;;;15.67;87.77;101244.45;88466;275;136680;-72
2023/09/29 01:38:27;;;;;;;17.90;11.90;;;;;;;15.61;88.17;101240.70;88580;281;23904;-71
2023/09/29 01:40:29;;;;;;;16.60;11.60;;;;;;;15.56;87.86;101244.45;88529;277;137011;-70
2023/09/29 01:42:31;;;;;;;16.90;11.70;;;;;;;15.52;87.65;101240.95;88577;273;25080;-74
2023/09/29 01:44:33;;;;;;;14.10;10.90;;;;;;;15.49;87.73;101240.23;88323;283;136754;-68
2023/09/29 01:46:35;;;;;;;17.30;12.50;;;;;;;15.49;87.88;101239.45;88616;277;24020;-75
2023/09/29 01:48:37;;;;;;;19.40;15.30;;;;;;;15.44;89.30;101238.00;88557;277;136668;-72
2023/09/29 01:50:40;;;;;;;19.50;17.40;;;;;;;15.32;91.09;101236.33;88445;281;22528;-74
2023/09/29 01:52:44;;;;;;;27.40;17.00;;;;;;;15.15;92.67;101239.86;88342;273;137152;-77
2023/09/29 01:54:45;;;;;;;23.50;15.70;;;;;;;14.96;94.22;101243.09;88958;273;25233;-73
2023/09/29 01:56:47;;;;;;;19.10;16.50;;;;;;;14.80;95.59;101244.64;88579;279;137148;-72
2023/09/29 01:58:49;;;;;;;18.50;16.10;;;;;;;14.66;96.32;101245.15;88646;281;25103;-78
2023/09/29 02:00:51;;;;;;;18.30;14.60;;;;;;;14.59;97.15;101245.63;88364;275;137379;-74
2023/09/29 02:02:54;;;;;;;17.10;15.30;;;;;;;14.54;97.76;101243.73;88567;283;24061;-76
2023/09/29 02:04:56;;;;;;;22.40;16.40;;;;;;;14.48;98.62;101243.59;88491;279;137220;-76
2023/09/29 02:06:59;;;;;;;17.90;15.40;;;;;;;14.40;99.14;101244.74;88731;277;23712;-76
2023/09/29 02:09:01;;;;;;;20.90;16.10;;;;;;;14.30;99.89;101243.99;88479;281;137350;-74
2023/09/29 02:11:04;;;;;;;18.20;15.10;;;;;;;14.21;100.00;101242.42;88514;282;24128;-74
2023/09/29 02:13:07;;;;;;;26.70;14.50;;;;;;;14.17;100.00;101240.42;88359;281;138536;-74
2023/09/29 02:15:09;;;;;;;17.70;15.30;;;;;;;14.18;100.00;101238.17;88634;274;22534;-74
2023/09/29 02:17:11;;;;;;;22.00;16.40;;;;;;;14.21;100.00;101239.20;88413;274;137085;-75
2023/09/29 02:19:15;;;;;;;17.40;13.20;;;;;;;14.24;100.00;101239.46;88540;282;25140;-76
2023/09/29 02:21:27;;;;;;;18.40;11.60;;;;;;;14.25;99.90;101236.13;88546;280;136824;-71
2023/09/29 02:23:29;;;;;;;20.50;12.40;;;;;;;14.30;99.01;101239.98;88424;279;22526;-76
2023/09/29 02:25:32;;;;;;;21.10;12.30;;;;;;;14.37;98.01;101238.36;88384;282;138361;-68
2023/09/29 02:27:36;;;;;;;18.20;14.10;;;;;;;14.44;97.58;101241.08;88639;280;25117;-75
2023/09/29 02:29:39;;;;;;;13.30;11.80;;;;;;;14.53;96.85;101238.69;88645;282;137208;-76
2023/09/29 02:31:40;;;;;;;14.70;13.20;;;;;;;14.62;96.21;101241.31;88574;275;22534;-73
2023/09/29 02:33:42;;;;;;;15.40;12.30;;;;;;;14.70;95.75;101243.90;88517;280;137176;-76
2023/09/29 02:35:44;;;;;;;20.30;13.10;;;;;;;14.77;95.04;101243.75;88660;281;22785;-75
2023/09/29 02:37:47;;;;;;;18.10;12.00;;;;;;;14.75;94.68;101230.89;88501;280;137775;-75
2023/09/29 02:39:49;;;;;;;21.80;12.30;;;;;;;14.86;94.31;101242.30;88543;275;25118;-76
2023/09/29 02:41:51;;;;;;;15.20;12.30;;;;;;;14.86;94.02;101240.94;88542;281;136778;-73
2023/09/29 02:43:53;;;;;;;17.80;13.10;;;;;;;14.88;93.78;101239.17;88474;279;22708;-74
2023/09/29 02:45:56;;;;;;;18.50;13.70;;;;;;;14.89;93.75;101243.42;88471;273;136319;-72
2023/09/29 02:47:58;;;;;;;18.20;12.30;;;;;;;14.89;93.57;101244.91;88595;273;22537;-74
2023/09/29 02:50:01;;;;;;;20.40;13.30;;;;;;;14.88;93.18;101240.75;88547;277;136413;-72
2023/09/29 02:52:04;;;;;;;17.60;12.10;;;;;;;14.88;93.13;101237.00;88195;277;137101;-70
2023/09/29 02:54:06;;;;;;;18.50;12.90;;;;;;;14.89;92.99;101243.98;88598;275;22606;-75
2023/09/29 02:56:11;;;;;;;19.80;13.00;;;;;;;14.92;92.93;101242.59;88352;282;138675;-71
2023/09/29 02:58:14;;;;;;;13.30;12.00;;;;;;;14.93;93.19;101245.86;88413;275;22524;-76
2023/09/29 03:00:18;;;;;;;16.30;13.60;;;;;;;14.91;93.49;101245.85;88399;280;138366;-74
2023/09/29 03:02:22;;;;;;;19.60;14.00;;;;;;;14.86;94.15;101244.20;90278;282;23864;-78
2023/09/29 03:04:24;;;;;;;15.60;13.40;;;;;;;14.79;94.51;101246.38;88558;280;137890;-77
2023/09/29 03:06:25;;;;;;;16.60;14.60;;;;;;;14.72;95.04;101244.38;88641;280;22527;-76
2023/09/29 03:08:27;;;;;;;17.20;15.50;;;;;;;14.62;96.00;101244.76;88522;281;136663;-74
2023/09/29 03:10:29;;;;;;;17.50;14.50;;;;;;;14.45;96.88;101241.08;88631;277;22546;-77
2023/09/29 03:12:36;;;;;;;23.30;17.60;;;;;;;14.27;98.79;101241.31;88762;281;136776;-74
2023/09/29 03:14:38;;;;;;;16.50;14.70;;;;;;;14.13;99.45;101238.82;88663;279;22537;-76
2023/09/29 03:16:40;;;;;;;16.20;14.60;;;;;;;13.98;99.92;101243.27;88642;281;137463;-75
2023/09/29 03:18:42;;;;;;;24.10;16.40;;;;;;;13.89;100.00;101243.05;88414;280;22634;-76
2023/09/29 03:20:44;;;;;;;17.20;13.90;;;;;;;13.81;100.00;101242.73;88476;274;138814;-75
2023/09/29 03:22:48;;;;;;;18.40;14.20;;;;;;;13.78;100.00;101243.91;88667;281;22818;-72
2023/09/29 03:24:49;;;;;;;24.20;13.00;;;;;;;13.77;100.00;101235.88;88465;277;137385;-77
2023/09/29 03:26:51;;;;;;;16.90;12.50;;;;;;;13.83;100.00;101239.77;88667;273;22547;-75
2023/09/29 03:28:56;;;;;;;21.50;13.00;;;;;;;13.89;100.00;101241.36;88499;281;137861;-76
2023/09/29 03:31:00;;;;;;;16.90;13.00;;;;;;;13.94;100.00;101239.89;88395;276;22637;-76
2023/09/29 03:33:01;;;;;;;17.40;11.90;;;;;;;13.96;100.00;101242.51;88435;274;137569;-75
2023/09/29 03:35:05;;;;;;;26.90;15.10;;;;;;;13.96;99.98;101241.81;88633;277;24107;-77
2023/09/29 03:37:07;;;;;;;16.80;15.00;;;;;;;13.94;100.00;101240.42;88578;281;136865;-77
2023/09/29 03:39:09;;;;;;;23.90;15.70;;;;;;;13.91;100.00;101240.96;88514;281;25335;-74
2023/09/29 03:43:34;;;;;;;18.20;15.40;;;;;;;13.78;100.00;101240.73;87071;304;604025;-75
2023/09/29 03:45:38;;;;;;;19.30;14.80;;;;;;;13.76;100.00;101241.33;87831;285;136473;-78
2023/09/29 03:47:40;;;;;;;20.50;16.00;;;;;;;13.78;100.00;101243.81;88213;281;23723;-72
2023/09/29 03:49:43;;;;;;;21.10;14.50;;;;;;;13.78;100.00;101241.05;88113;279;136654;-73
2023/09/29 03:51:45;;;;;;;25.10;14.30;;;;;;;13.79;100.00;101241.15;88139;286;25178;-76
2023/09/29 03:53:48;;;;;;;18.10;14.40;;;;;;;13.79;100.00;101243.52;87903;280;137131;-75
2023/09/29 03:55:52;;;;;;;20.90;14.10;;;;;;;13.79;100.00;101244.33;88363;284;22537;-74
2023/09/29 03:57:53;;;;;;;20.00;13.70;;;;;;;13.80;100.00;101237.83;87805;279;624614;-76
2023/09/29 03:59:56;;;;;;;20.30;14.10;;;;;;;13.84;100.00;101239.14;88210;279;23029;-77
2023/09/29 04:01:57;;;;;;;19.10;13.30;;;;;;;13.87;100.00;101237.70;88062;279;136443;-73
2023/09/29 04:04:01;;;;;;;17.20;12.90;;;;;;;13.89;100.00;101239.29;88296;282;22557;-78
2023/09/29 04:06:03;;;;;;;20.30;13.30;;;;;;;13.91;100.00;101243.69;88110;285;22562;-78
2023/09/29 04:08:05;;;;;;;17.40;14.60;;;;;;;13.91;100.00;101243.98;88088;279;136837;-74
2023/09/29 04:10:12;;;;;;;21.30;14.90;;;;;;;13.90;100.00;101244.36;88445;273;25135;-76
2023/09/29 04:12:14;;;;;;;16.00;14.40;;;;;;;13.91;99.99;101246.36;89699;281;136729;-76
2023/09/29 04:14:16;;;;;;;16.30;12.90;;;;;;;13.92;99.98;101247.11;88535;280;25248;-73
2023/09/29 04:16:34;;;;;;;17.70;12.60;;;;;;;13.98;99.90;101244.43;88390;273;138446;-74
2023/09/29 04:18:38;;;;;;;15.50;11.70;;;;;;;14.08;99.98;101249.98;88535;277;25234;-74
2023/09/29 04:20:41;;;;;;;17.50;12.30;;;;;;;14.22;99.77;101247.48;88460;277;137040;-74
2023/09/29 04:22:43;;;;;;;17.40;12.40;;;;;;;14.44;99.67;101246.61;88574;273;25210;-79
2023/09/29 04:24:45;;;;;;;16.10;11.60;;;;;;;14.73;98.59;101246.56;88264;277;136807;-76
2023/09/29 04:26:47;;;;;;;14.20;11.70;;;;;;;15.05;96.94;101247.19;88419;274;25216;-73
2023/09/29 04:28:50;;;;;;;15.70;11.10;;;;;;;15.38;95.02;101244.34;88489;272;137565;-75
2023/09/29 04:30:52;;;;;;;16.20;11.10;;;;;;;15.73;93.39;101244.33;88530;272;22529;-77
2023/09/29 04:32:55;;;;;;;16.50;12.10;;;;;;;16.08;91.08;101245.58;88479;272;136336;-71
2023/09/29 04:34:57;;;;;;;15.50;11.90;;;;;;;16.46;88.95;101240.66;88612;277;25080;-76
2023/09/29 04:36:58;;;;;;;16.00;12.30;;;;;;;16.72;86.49;101241.54;88369;280;136475;-76
2023/09/29 04:39:01;;;;;;;15.30;13.40;;;;;;;16.98;85.18;101241.73;88528;273;22921;-76
2023/09/29 04:41:06;;;;;;;18.30;14.20;;;;;;;17.25;84.52;101243.18;88519;273;137480;-78
2023/09/29 04:43:09;;;;;;;17.70;14.10;;;;;;;17.53;84.08;101241.31;88560;273;24360;-78
2023/09/29 04:45:11;;;;;;;21.40;14.80;;;;;;;17.83;82.81;101245.23;88484;273;136288;-77
2023/09/29 04:47:12;;;;;;;23.70;14.50;;;;;;;18.11;81.04;101243.35;88468;277;25103;-78
2023/09/29 04:49:14;;;;;;;21.70;12.50;;;;;;;18.39;78.66;101242.58;88452;277;137091;-74
2023/09/29 04:51:16;;;;;;;19.30;12.10;;;;;;;18.70;76.63;101243.11;88403;273;22885;-74
2023/09/29 04:53:18;;;;;;;22.90;12.90;;;;;;;19.00;75.00;101244.49;88441;273;137577;-76
2023/09/29 04:55:20;;;;;;;16.10;11.00;;;;;;;19.34;73.27;101244.98;88515;275;24021;-77
2023/09/29 04:57:22;;;;;;;18.00;11.60;;;;;;;19.72;71.17;101240.77;88531;281;136986;-77
2023/09/29 04:59:26;;;;;;;13.20;11.30;;;;;;;20.05;69.40;101238.03;88852;273;25156;-74
2023/09/29 05:01:28;;;;;;;18.80;13.70;;;;;;;20.32;68.68;101237.98;88379;273;136286;-78
2023/09/29 05:03:29;;;;;;;19.50;14.10;;;;;;;20.57;67.88;101238.69;88594;274;25389;-75
2023/09/29 05:05:33;;;;;;;17.60;13.20;;;;;;;20.83;67.58;101238.67;88272;283;136121;-75
2023/09/29 05:07:35;;;;;;;16.20;11.60;;;;;;;21.08;65.96;101240.89;88712;273;22534;-77
2023/09/29 05:09:37;;;;;;;13.40;11.90;;;;;;;21.34;64.44;101241.46;88555;281;136073;-77
2023/09/29 05:11:39;;;;;;;15.30;12.50;;;;;;;21.58;64.19;101241.01;88479;279;25090;-78
2023/09/29 05:13:41;;;;;;;20.40;12.30;;;;;;;21.79;64.12;101241.07;88491;273;136285;-77
2023/09/29 05:15:42;;;;;;;13.10;11.50;;;;;;;22.04;62.48;101242.80;88721;274;23717;-75
2023/09/29 05:17:44;;;;;;;14.60;10.70;;;;;;;22.27;60.13;101240.13;88522;273;136291;-76
2023/09/29 05:19:53;;;;;;;16.00;10.70;;;;;;;22.42;58.40;101238.08;88598;277;22530;-76
2023/09/29 05:21:58;;;;;;;17.20;10.20;;;;;;;22.53;58.19;101236.89;88532;277;135988;-76
2023/09/29 05:24:01;;;;;;;14.40;11.20;;;;;;;22.68;57.63;101238.61;88689;279;23981;-78
2023/09/29 05:26:07;;;;;;;12.50;10.50;;;;;;;22.86;56.86;101238.34;88460;273;26174;-76
2023/09/29 05:28:10;;;;;;;14.50;10.40;;;;;;;23.06;55.93;101241.48;88697;273;136489;-78
2023/09/29 05:30:12;;;;;;;14.20;10.50;;;;;;;23.22;55.37;101242.48;88689;277;26174;-76
2023/09/29 05:32:14;;;;;;;13.40;11.00;;;;;;;23.40;54.57;101240.60;88559;277;137495;-77
2023/09/29 05:34:17;;;;;;;12.40;9.20;;;;;;;23.56;53.92;101241.29;88990;275;22875;-74
2023/09/29 05:36:19;;;;;;;18.60;11.20;;;;;;;23.74;52.97;101241.30;89101;273;136267;-79
2023/09/29 05:38:21;;;;;;;13.60;10.30;;;;;;;23.92;52.26;101242.40;89824;274;25203;-79
2023/09/29 05:40:23;;;;;;;12.00;9.20;;;;;;;24.07;51.81;101243.14;89952;281;135800;-77
2023/09/29 05:42:25;;;;;;;14.20;10.10;;;;;;;24.22;51.38;101238.23;89973;282;23483;-77
2023/09/29 05:44:47;;;;;;;14.10;10.50;;;;;;;24.32;51.22;101233.54;89425;277;137422;-74
2023/09/29 05:46:50;;;;;;;14.30;10.60;;;;;;;24.44;50.86;101232.98;89487;280;23429;-75
2023/09/29 05:48:52;;;;;;;12.60;9.90;;;;;;;24.60;50.86;101231.27;88676;281;135983;-78
2023/09/29 05:50:54;;;;;;;13.90;10.80;;;;;;;24.72;50.22;101233.63;88641;273;22549;-78
2023/09/29 05:52:56;;;;;;;17.20;12.00;;;;;;;24.76;49.68;101233.20;88472;277;136302;-72
2023/09/29 05:55:11;;;;;;;17.80;11.00;;;;;;;24.75;49.56;101236.98;88307;281;25170;-69
2023/09/29 05:57:13;;;;;;;16.50;10.90;;;;;;;24.75;50.02;101232.98;88184;282;135804;-68
2023/09/29 05:59:15;;;;;;;16.20;11.90;;;;;;;24.82;49.56;101225.13;88394;273;22599;-69
2023/09/29 06:01:16;;;;;;;17.50;12.80;;;;;;;24.91;49.52;101226.72;88407;278;136105;-68
2023/09/29 06:03:19;;;;;;;15.20;11.00;;;;;;;25.00;48.79;101226.16;88473;273;22529;-70
2023/09/29 06:05:21;;;;;;;16.50;12.30;;;;;;;25.07;48.66;101226.44;88324;278;135798;-69
2023/09/29 06:07:23;;;;;;;12.30;11.00;;;;;;;25.13;48.25;101223.52;88553;272;23714;-70
2023/09/29 06:09:26;;;;;;;15.70;12.00;;;;;;;25.19;48.41;101226.50;88423;280;136326;-72
2023/09/29 06:11:27;;;;;;;17.30;11.90;;;;;;;25.30;47.67;101227.52;91151;280;25080;-69
2023/09/29 06:13:29;;;;;;;15.50;11.60;;;;;;;25.43;47.16;101226.65;88290;277;136297;-72
2023/09/29 06:15:32;;;;;;;25.90;11.90;;;;;;;25.55;47.13;101226.04;88455;281;25080;-71
2023/09/29 06:17:34;;;;;;;16.20;11.60;;;;;;;25.66;47.27;101223.02;88442;274;137851;-67
2023/09/29 06:19:36;;;;;;;15.80;11.20;;;;;;;25.69;46.62;101225.14;88503;281;24997;-69
2023/09/29 06:21:38;;;;;;;17.30;11.80;;;;;;;25.64;46.89;101225.47;88334;280;136295;-71
2023/09/29 06:23:40;;;;;;;16.30;10.80;;;;;;;25.37;47.48;101226.29;88474;274;25105;-66
2023/09/29 06:25:42;;;;;;;20.90;10.70;;;;;;;24.94;48.04;101227.11;88511;275;136088;-72
2023/09/29 06:27:48;;;;;;;17.80;11.30;;;;;;;24.42;48.57;101227.86;88590;274;24820;-70
2023/09/29 06:29:51;;;;;;;16.80;11.10;;;;;;;23.89;49.90;101233.21;88505;277;136428;-70
2023/09/29 06:31:54;;;;;;;16.50;11.40;;;;;;;23.38;51.13;101230.02;88460;277;22576;-72
2023/09/29 06:33:55;;;;;;;13.90;10.30;;;;;;;22.94;52.37;101231.99;88424;275;137581;-69
2023/09/29 06:35:58;;;;;;;18.60;11.70;;;;;;;22.51;53.67;101233.59;88382;275;22551;-71
2023/09/29 06:38:00;;;;;;;14.00;10.50;;;;;;;22.05;55.26;101218.16;88361;279;136659;-69
2023/09/29 06:40:02;;;;;;;14.90;11.40;;;;;;;21.81;56.53;101234.14;88513;279;25170;-66
2023/09/29 06:42:04;;;;;;;13.30;11.10;;;;;;;21.52;57.85;101233.40;88311;275;136856;-67
2023/09/29 06:44:07;;;;;;;17.70;11.80;;;;;;;21.27;59.22;101232.85;88485;281;138088;-69
2023/09/29 06:46:10;;;;;;;14.20;11.30;;;;;;;21.03;60.17;101237.48;88554;273;22540;-68
2023/09/29 06:48:13;;;;;;;18.70;12.90;;;;;;;20.80;60.73;101235.80;88503;274;137748;-69
2023/09/29 06:50:15;;;;;;;13.10;11.70;;;;;;;20.56;61.65;101237.27;88339;275;24889;-70
2023/09/29 06:52:17;;;;;;;17.70;12.20;;;;;;;20.37;62.37;101238.61;88426;281;136888;-68
2023/09/29 06:54:18;;;;;;;16.00;11.40;;;;;;;20.29;63.46;101239.81;88451;273;22546;-68
2023/09/29 06:56:20;;;;;;;21.60;11.30;;;;;;;20.17;64.58;101228.02;88210;275;140585;-68
2023/09/29 06:58:22;;;;;;;17.40;11.40;;;;;;;20.18;65.56;101236.94;88457;277;26267;-72
2023/09/29 07:00:25;;;;;;;12.80;11.10;;;;;;;20.16;66.10;101239.96;88393;274;137729;-70
2023/09/29 07:02:27;;;;;;;15.20;12.30;;;;;;;20.16;66.88;101240.23;88389;276;24049;-70
2023/09/29 07:04:28;;;;;;;15.50;12.00;;;;;;;20.14;67.00;101238.17;88160;273;138970;-68
2023/09/29 07:06:30;;;;;;;18.10;12.00;;;;;;;20.07;67.55;101229.64;88217;275;25190;-70
2023/09/29 07:08:32;;;;;;;18.80;12.10;;;;;;;20.14;66.93;101239.79;88182;280;137951;-68
2023/09/29 07:10:34;;;;;;;16.50;12.10;;;;;;;20.17;67.06;101237.77;88514;277;24106;-68
2023/09/29 07:12:36;;;;;;;16.70;12.10;;;;;;;20.23;67.51;101236.04;88206;277;137989;-70
2023/09/29 07:14:38;;;;;;;14.60;11.50;;;;;;;20.29;67.41;101235.86;88373;277;22551;-69
2023/09/29 07:16:42;;;;;;;15.10;10.60;;;;;;;20.35;66.90;101233.20;88184;274;136986;-69
2023/09/29 07:18:44;;;;;;;20.10;13.00;;;;;;;20.38;66.48;101233.02;88357;274;22810;-67
2023/09/29 07:20:52;;;;;;;21.70;13.20;;;;;;;20.45;65.88;101230.30;88261;274;136660;-68
2023/09/29 07:22:54;;;;;;;18.70;11.70;;;;;;;20.51;65.31;101233.05;88508;274;25243;-70
2023/09/29 07:24:57;;;;;;;16.60;12.60;;;;;;;20.55;65.35;101228.46;88175;274;136672;-67
2023/09/29 07:27:00;;;;;;;22.50;13.20;;;;;;;20.61;65.46;101230.19;88384;275;24645;-66
2023/09/29 07:29:04;;;;;;;17.30;11.80;;;;;;;20.64;65.34;101229.89;88257;275;136363;-67
2023/09/29 07:31:06;;;;;;;21.70;10.60;;;;;;;20.69;64.84;101232.98;88189;276;22534;-67
2023/09/29 07:33:09;;;;;;;16.60;11.70;;;;;;;20.67;64.67;101219.12;88294;281;136890;-67
2023/09/29 07:35:11;;;;;;;14.90;10.70;;;;;;;20.82;64.47;101227.77;88602;275;22851;-69
2023/09/29 07:37:13;;;;;;;21.20;13.30;;;;;;;20.86;64.16;101216.10;88340;274;136592;-69
2023/09/29 07:39:15;;;;;;;18.90;11.60;;;;;;;21.06;63.83;101228.54;88223;284;22922;-69
2023/09/29 07:41:17;;;;;;;17.60;12.10;;;;;;;21.17;63.57;101230.30;90179;283;138786;-68
2023/09/29 07:43:20;;;;;;;26.00;12.00;;;;;;;21.26;62.74;101233.30;88477;282;24497;-68
2023/09/29 07:45:22;;;;;;;16.80;12.00;;;;;;;21.28;61.99;101220.30;88287;276;137108;-66
2023/09/29 07:47:23;;;;;;;18.20;11.10;;;;;;;21.45;61.89;101233.95;88282;277;23758;-68
2023/09/29 07:49:26;;;;;;;16.50;10.90;;;;;;;21.55;61.65;101237.23;88292;283;136542;-70
2023/09/29 07:51:32;;;;;;;20.90;13.20;;;;;;;21.65;60.97;101236.98;88510;277;22534;-69
2023/09/29 07:53:34;;;;;;;15.80;11.70;;;;;;;21.74;60.45;101235.39;88368;274;137221;-69
2023/09/29 07:55:35;;;;;;;17.70;12.70;;;;;;;21.83;60.22;101237.33;88381;282;22523;-70
2023/09/29 07:57:38;;;;;;;22.20;11.30;;;;;;;21.91;60.21;101234.18;88055;275;136875;-71
2023/09/29 07:59:40;;;;;;;21.20;11.80;;;;;;;21.98;60.46;101231.70;88972;279;24284;-69
2023/09/29 08:01:43;;;;;;;16.90;10.70;;;;;;;22.02;61.02;101230.60;88382;279;136382;-68
2023/09/29 08:03:45;;;;;;;19.80;11.80;;;;;;;22.08;60.71;101230.22;91298;281;23102;-67
2023/09/29 08:05:47;;;;;;;16.50;10.70;;;;;;;22.16;60.42;101226.77;91125;281;136412;-69
2023/09/29 08:07:48;;;;;;;18.30;11.50;;;;;;;22.24;60.19;101223.51;91315;280;22380;-68
2023/09/29 08:09:52;;;;;;;19.40;11.10;;;;;;;22.32;60.19;101223.61;90168;274;137270;-69
2023/09/29 08:11:54;;;;;;;16.10;11.00;;;;;;;22.41;59.21;101218.97;91418;282;22365;-70
2023/09/29 08:13:56;;;;;;;14.70;10.70;;;;;;;22.49;58.95;101220.36;88544;281;136154;-69
2023/09/29 08:15:58;;;;;;;18.50;10.70;;;;;;;22.57;58.34;101217.83;88369;281;22635;-69
2023/09/29 08:18:00;;;;;;;21.10;12.20;;;;;;;22.63;58.01;101218.42;88332;282;136227;-69
2023/09/29 08:20:05;;;;;;;15.50;10.40;;;;;;;22.72;58.08;101221.55;88423;274;24020;-71
2023/09/29 08:22:07;;;;;;;14.50;9.70;;;;;;;22.82;55.68;101218.88;88253;281;22721;-67
2023/09/29 08:24:09;;;;;;;18.90;10.30;;;;;;;22.88;55.37;101215.59;88300;274;137829;-68
2023/09/29 08:26:11;;;;;;;17.10;10.20;;;;;;;22.98;55.56;101216.27;88569;273;22541;-68
2023/09/29 08:28:13;;;;;;;19.10;11.40;;;;;;;23.08;56.38;101215.58;88214;282;136219;-66
2023/09/29 08:30:16;;;;;;;14.40;10.10;;;;;;;23.13;56.64;101213.91;88402;273;22596;-65
2023/09/29 08:32:19;;;;;;;17.00;9.40;;;;;;;23.17;56.43;101213.14;88315;282;136688;-66
2023/09/29 08:34:21;;;;;;;12.20;8.90;;;;;;;23.22;55.64;101210.39;88483;273;24015;-72
2023/09/29 08:36:23;;;;;;;13.90;9.20;;;;;;;23.27;55.18;101210.46;88334;277;136703;-67
2023/09/29 08:38:25;;;;;;;15.10;9.00;;;;;;;23.31;54.56;101212.10;88470;279;22515;-67
2023/09/29 08:40:29;;;;;;;14.50;9.40;;;;;;;23.34;54.28;101212.34;88323;281;136169;-70
2023/09/29 08:42:38;;;;;;;14.30;9.40;;;;;;;23.41;53.89;101209.60;88523;277;27091;-68
2023/09/29 08:44:43;;;;;;;18.40;10.10;;;;;;;23.47;53.96;101211.91;88461;274;136206;-68
2023/09/29 08:46:49;;;;;;;15.50;9.20;;;;;;;23.53;54.13;101211.00;88611;282;23867;-68
2023/09/29 08:48:52;;;;;;;15.90;7.80;;;;;;;23.61;53.64;101208.27;88191;275;136559;-70
2023/09/29 08:51:00;;;;;;;19.10;7.80;;;;;;;23.69;52.58;101208.42;88364;275;22857;-67
2023/09/29 08:53:05;;;;;;;12.80;6.80;;;;;;;23.78;51.24;101208.04;88344;273;136187;-68
2023/09/29 08:55:08;;;;;;;11.40;6.00;;;;;;;23.85;49.19;101211.18;88332;275;24021;-67
2023/09/29 08:57:10;;;;;;;7.20;5.30;;;;;;;23.92;48.97;101208.74;88328;275;137051;-66
2023/09/29 08:59:15;;;;;;;10.80;5.70;;;;;;;23.99;48.03;101205.00;88555;274;25131;-69
2023/09/29 09:01:17;;;;;;;8.60;4.70;;;;;;;24.06;47.49;101207.20;88426;280;136439;-70
2023/09/29 09:03:19;;;;;;;7.70;4.20;;;;;;;24.14;44.10;101212.27;88582;274;25103;-68
2023/09/29 09:05:23;;;;;;;9.50;3.70;;;;;;;24.17;43.48;101206.81;88431;274;136949;-68
2023/09/29 09:07:25;;;;;;;4.20;3.10;;;;;;;24.18;44.15;101209.27;88529;274;24060;-68
2023/09/29 09:09:27;;;;;;;5.90;3.80;;;;;;;24.19;43.38;101208.80;88355;282;136284;-68
2023/09/29 09:11:40;;;;;;;7.00;4.40;;;;;;;24.21;43.35;101204.84;88624;273;25084;-67
2023/09/29 09:13:42;;;;;;;3.90;3.40;;;;;;;24.22;43.10;101204.85;88455;275;137390;-66
2023/09/29 09:15:54;;;;;;;4.20;3.40;;;;;;;24.27;43.09;101201.83;88469;282;24060;-67
2023/09/29 09:17:58;;;;;;;5.40;3.40;;;;;;;24.33;40.80;101205.14;88519;273;135928;-67
2023/09/29 09:20:01;;;;;;;3.70;3.40;;;;;;;24.33;40.28;101201.44;88588;278;25038;-68
2023/09/29 09:22:14;;;;;;;3.90;3.60;;;;;;;24.29;39.48;101203.38;88567;274;25588;-66
2023/09/29 09:24:21;;;;;;;5.00;2.90;;;;;;;24.25;39.39;101201.77;88421;274;136673;-67